KMWM/MWM METAR and TAF weather

Enter ICAO airport designator
Station Type Date Time Source
KMWM METAR 2019/06/19 01:56 UTC NOAA

KMWM 190156Z AUTO 00000KT 10SM CLR 19/11 A2990 RMK AO2


Station Type Date Time Source
KMWM Decoded METAR 2019/06/19 01:56 UTC NOAA

Windom, Windom Municipal Airport, MN, United States (KMWM) 43-54-48N 095-06-34W
Jun 18, 2019 - 09:56 PM EDT / 2019.06.19 0156 UTC
Wind: Calm:0
Visibility: 10 mile(s):0
Sky conditions: clear
Temperature: 66 F (19 C)
Dew Point: 51 F (11 C)
Relative Humidity: 59%
Pressure (altimeter): 29.9 in. Hg (1012 hPa)
ob: KMWM 190156Z AUTO 00000KT 10SM CLR 19/11 A2990 RMK AO2
cycle: 2

Station Type Date Time Source
KMWM TAF UTC NOAA

Error!

Example: see airport list